sensor_id;sensor_type;location;lat;lon;timestamp;P1;durP1;ratioP1;P2;durP2;ratioP2
50683;SDS011;36654;45.042;38.994;2023-02-28T00:01:19;9.13;;;5.20;;
50683;SDS011;36654;45.042;38.994;2023-02-28T00:03:45;11.00;;;6.05;;
50683;SDS011;36654;45.042;38.994;2023-02-28T00:06:10;10.00;;;5.55;;
50683;SDS011;36654;45.042;38.994;2023-02-28T00:08:36;12.25;;;5.93;;
50683;SDS011;36654;45.042;38.994;2023-02-28T00:11:03;10.48;;;5.50;;
50683;SDS011;36654;45.042;38.994;2023-02-28T00:13:29;12.02;;;6.88;;
50683;SDS011;36654;45.042;38.994;2023-02-28T00:16:02;9.93;;;5.30;;
50683;SDS011;36654;45.042;38.994;2023-02-28T00:18:29;10.40;;;6.05;;
50683;SDS011;36654;45.042;38.994;2023-02-28T00:20:55;11.45;;;5.80;;
50683;SDS011;36654;45.042;38.994;2023-02-28T00:23:22;16.27;;;6.38;;
50683;SDS011;36654;45.042;38.994;2023-02-28T00:25:47;12.75;;;5.45;;
50683;SDS011;36654;45.042;38.994;2023-02-28T00:28:13;11.25;;;6.18;;
50683;SDS011;36654;45.042;38.994;2023-02-28T00:30:39;10.00;;;5.45;;
50683;SDS011;36654;45.042;38.994;2023-02-28T00:33:04;13.50;;;5.70;;
50683;SDS011;36654;45.042;38.994;2023-02-28T00:35:30;11.65;;;5.95;;
50683;SDS011;36654;45.042;38.994;2023-02-28T00:37:55;12.50;;;5.72;;
50683;SDS011;36654;45.042;38.994;2023-02-28T00:40:21;13.15;;;5.93;;
50683;SDS011;36654;45.042;38.994;2023-02-28T00:42:46;11.93;;;6.13;;
50683;SDS011;36654;45.042;38.994;2023-02-28T00:45:12;11.75;;;5.60;;
50683;SDS011;36654;45.042;38.994;2023-02-28T00:47:38;11.80;;;5.35;;
50683;SDS011;36654;45.042;38.994;2023-02-28T00:50:03;13.15;;;6.43;;
50683;SDS011;36654;45.042;38.994;2023-02-28T00:52:29;10.32;;;5.68;;
50683;SDS011;36654;45.042;38.994;2023-02-28T00:54:55;11.85;;;6.63;;
50683;SDS011;36654;45.042;38.994;2023-02-28T00:57:21;14.30;;;6.15;;
50683;SDS011;36654;45.042;38.994;2023-02-28T00:59:46;16.08;;;6.00;;
50683;SDS011;36654;45.042;38.994;2023-02-28T01:02:12;12.20;;;6.03;;
50683;SDS011;36654;45.042;38.994;2023-02-28T01:04:38;14.90;;;6.07;;
50683;SDS011;36654;45.042;38.994;2023-02-28T01:07:03;9.77;;;5.97;;
50683;SDS011;36654;45.042;38.994;2023-02-28T01:09:29;9.82;;;5.95;;
50683;SDS011;36654;45.042;38.994;2023-02-28T01:11:55;8.40;;;5.70;;
50683;SDS011;36654;45.042;38.994;2023-02-28T01:14:20;14.48;;;5.65;;
50683;SDS011;36654;45.042;38.994;2023-02-28T01:16:46;13.18;;;6.28;;
50683;SDS011;36654;45.042;38.994;2023-02-28T01:19:12;9.95;;;5.72;;
50683;SDS011;36654;45.042;38.994;2023-02-28T01:21:37;8.30;;;5.82;;
50683;SDS011;36654;45.042;38.994;2023-02-28T01:24:04;11.02;;;5.80;;
50683;SDS011;36654;45.042;38.994;2023-02-28T01:26:30;12.73;;;5.78;;
50683;SDS011;36654;45.042;38.994;2023-02-28T01:28:56;11.07;;;6.22;;
50683;SDS011;36654;45.042;38.994;2023-02-28T01:31:22;12.65;;;5.70;;
50683;SDS011;36654;45.042;38.994;2023-02-28T01:33:48;9.70;;;5.85;;
50683;SDS011;36654;45.042;38.994;2023-02-28T01:36:15;9.25;;;5.07;;
50683;SDS011;36654;45.042;38.994;2023-02-28T01:38:43;12.50;;;6.70;;
50683;SDS011;36654;45.042;38.994;2023-02-28T01:41:10;12.38;;;5.93;;
50683;SDS011;36654;45.042;38.994;2023-02-28T01:46:09;10.90;;;5.60;;
50683;SDS011;36654;45.042;38.994;2023-02-28T01:48:46;8.15;;;5.75;;
50683;SDS011;36654;45.042;38.994;2023-02-28T01:51:20;14.32;;;5.28;;
50683;SDS011;36654;45.042;38.994;2023-02-28T01:53:55;10.93;;;5.40;;
50683;SDS011;36654;45.042;38.994;2023-02-28T01:56:26;8.30;;;5.60;;
50683;SDS011;36654;45.042;38.994;2023-02-28T01:58:55;13.55;;;6.70;;
50683;SDS011;36654;45.042;38.994;2023-02-28T02:01:21;12.93;;;6.95;;
50683;SDS011;36654;45.042;38.994;2023-02-28T02:03:56;11.70;;;6.03;;
50683;SDS011;36654;45.042;38.994;2023-02-28T02:06:25;14.27;;;6.70;;
50683;SDS011;36654;45.042;38.994;2023-02-28T02:09:03;10.48;;;5.60;;
50683;SDS011;36654;45.042;38.994;2023-02-28T02:11:29;10.40;;;5.80;;
50683;SDS011;36654;45.042;38.994;2023-02-28T02:17:12;10.10;;;5.97;;
50683;SDS011;36654;45.042;38.994;2023-02-28T02:20:04;12.02;;;5.90;;
50683;SDS011;36654;45.042;38.994;2023-02-28T02:25:45;9.65;;;5.38;;
50683;SDS011;36654;45.042;38.994;2023-02-28T02:31:29;11.77;;;6.03;;
50683;SDS011;36654;45.042;38.994;2023-02-28T02:39:19;8.65;;;5.68;;
50683;SDS011;36654;45.042;38.994;2023-02-28T02:41:56;8.23;;;5.47;;
50683;SDS011;36654;45.042;38.994;2023-02-28T02:44:43;10.45;;;6.43;;
50683;SDS011;36654;45.042;38.994;2023-02-28T02:47:31;9.95;;;5.40;;
50683;SDS011;36654;45.042;38.994;2023-02-28T02:49:59;13.20;;;6.32;;
50683;SDS011;36654;45.042;38.994;2023-02-28T02:52:34;12.60;;;5.45;;
50683;SDS011;36654;45.042;38.994;2023-02-28T02:55:06;13.27;;;5.50;;
50683;SDS011;36654;45.042;38.994;2023-02-28T02:57:41;9.85;;;5.57;;
50683;SDS011;36654;45.042;38.994;2023-02-28T03:00:12;7.68;;;5.70;;
50683;SDS011;36654;45.042;38.994;2023-02-28T03:02:43;14.05;;;5.30;;
50683;SDS011;36654;45.042;38.994;2023-02-28T03:05:30;11.70;;;6.05;;
50683;SDS011;36654;45.042;38.994;2023-02-28T03:08:07;10.32;;;6.20;;
50683;SDS011;36654;45.042;38.994;2023-02-28T03:10:39;13.23;;;5.60;;
50683;SDS011;36654;45.042;38.994;2023-02-28T03:15:51;15.75;;;6.22;;
50683;SDS011;36654;45.042;38.994;2023-02-28T03:21:18;12.40;;;5.82;;
50683;SDS011;36654;45.042;38.994;2023-02-28T03:26:29;12.70;;;5.97;;
50683;SDS011;36654;45.042;38.994;2023-02-28T03:29:01;12.98;;;5.57;;
50683;SDS011;36654;45.042;38.994;2023-02-28T03:31:54;14.13;;;5.68;;
50683;SDS011;36654;45.042;38.994;2023-02-28T03:37:16;13.25;;;6.20;;
50683;SDS011;36654;45.042;38.994;2023-02-28T03:39:48;10.00;;;5.45;;
50683;SDS011;36654;45.042;38.994;2023-02-28T03:42:20;10.15;;;5.53;;
50683;SDS011;36654;45.042;38.994;2023-02-28T03:44:53;14.57;;;6.38;;
50683;SDS011;36654;45.042;38.994;2023-02-28T03:47:24;11.32;;;5.63;;
50683;SDS011;36654;45.042;38.994;2023-02-28T03:52:32;10.18;;;5.43;;
50683;SDS011;36654;45.042;38.994;2023-02-28T03:55:02;16.15;;;6.07;;
50683;SDS011;36654;45.042;38.994;2023-02-28T03:57:38;18.60;;;5.72;;
50683;SDS011;36654;45.042;38.994;2023-02-28T04:00:14;9.65;;;5.40;;
50683;SDS011;36654;45.042;38.994;2023-02-28T04:03:02;12.27;;;6.00;;
50683;SDS011;36654;45.042;38.994;2023-02-28T04:05:28;13.77;;;6.47;;
50683;SDS011;36654;45.042;38.994;2023-02-28T04:08:03;14.15;;;5.25;;
50683;SDS011;36654;45.042;38.994;2023-02-28T04:10:32;11.45;;;6.03;;
50683;SDS011;36654;45.042;38.994;2023-02-28T04:12:58;9.27;;;5.93;;
50683;SDS011;36654;45.042;38.994;2023-02-28T04:15:24;10.32;;;5.35;;
50683;SDS011;36654;45.042;38.994;2023-02-28T04:17:49;10.07;;;5.03;;
50683;SDS011;36654;45.042;38.994;2023-02-28T04:20:15;10.77;;;5.70;;
50683;SDS011;36654;45.042;38.994;2023-02-28T04:22:41;17.50;;;6.15;;
50683;SDS011;36654;45.042;38.994;2023-02-28T04:25:07;13.75;;;6.07;;
50683;SDS011;36654;45.042;38.994;2023-02-28T04:27:33;11.40;;;5.75;;
50683;SDS011;36654;45.042;38.994;2023-02-28T04:29:59;10.45;;;5.53;;
50683;SDS011;36654;45.042;38.994;2023-02-28T04:32:25;11.10;;;5.72;;
50683;SDS011;36654;45.042;38.994;2023-02-28T04:34:50;9.32;;;5.72;;
50683;SDS011;36654;45.042;38.994;2023-02-28T04:37:16;10.57;;;5.68;;
50683;SDS011;36654;45.042;38.994;2023-02-28T04:39:42;14.68;;;5.72;;
50683;SDS011;36654;45.042;38.994;2023-02-28T04:42:08;12.05;;;5.80;;
50683;SDS011;36654;45.042;38.994;2023-02-28T04:44:34;12.32;;;6.20;;
50683;SDS011;36654;45.042;38.994;2023-02-28T04:46:59;11.32;;;5.53;;
50683;SDS011;36654;45.042;38.994;2023-02-28T04:49:25;11.13;;;6.13;;
50683;SDS011;36654;45.042;38.994;2023-02-28T04:51:51;7.50;;;5.13;;
50683;SDS011;36654;45.042;38.994;2023-02-28T04:54:17;11.35;;;5.57;;
50683;SDS011;36654;45.042;38.994;2023-02-28T04:56:43;12.65;;;5.47;;
50683;SDS011;36654;45.042;38.994;2023-02-28T04:59:09;13.25;;;6.45;;
50683;SDS011;36654;45.042;38.994;2023-02-28T05:01:34;13.60;;;6.47;;
50683;SDS011;36654;45.042;38.994;2023-02-28T05:04:02;15.63;;;7.20;;
50683;SDS011;36654;45.042;38.994;2023-02-28T05:06:31;13.88;;;6.50;;
50683;SDS011;36654;45.042;38.994;2023-02-28T05:08:57;9.30;;;6.10;;
50683;SDS011;36654;45.042;38.994;2023-02-28T05:11:24;12.88;;;6.35;;
50683;SDS011;36654;45.042;38.994;2023-02-28T05:14:04;14.70;;;7.13;;
50683;SDS011;36654;45.042;38.994;2023-02-28T05:16:32;12.73;;;6.78;;
50683;SDS011;36654;45.042;38.994;2023-02-28T05:18:58;11.25;;;5.90;;
50683;SDS011;36654;45.042;38.994;2023-02-28T05:21:28;10.43;;;6.10;;
50683;SDS011;36654;45.042;38.994;2023-02-28T05:23:57;15.68;;;6.47;;
50683;SDS011;36654;45.042;38.994;2023-02-28T05:26:24;12.30;;;5.97;;
50683;SDS011;36654;45.042;38.994;2023-02-28T05:28:50;15.90;;;6.10;;
50683;SDS011;36654;45.042;38.994;2023-02-28T05:31:15;11.45;;;5.78;;
50683;SDS011;36654;45.042;38.994;2023-02-28T05:33:41;12.45;;;6.35;;
50683;SDS011;36654;45.042;38.994;2023-02-28T05:36:07;12.57;;;6.93;;
50683;SDS011;36654;45.042;38.994;2023-02-28T05:38:32;18.20;;;6.25;;
50683;SDS011;36654;45.042;38.994;2023-02-28T05:40:58;14.90;;;6.82;;
50683;SDS011;36654;45.042;38.994;2023-02-28T05:43:24;12.15;;;6.57;;
50683;SDS011;36654;45.042;38.994;2023-02-28T05:45:50;14.82;;;6.80;;
50683;SDS011;36654;45.042;38.994;2023-02-28T05:48:15;15.00;;;6.32;;
50683;SDS011;36654;45.042;38.994;2023-02-28T05:50:42;15.90;;;6.22;;
50683;SDS011;36654;45.042;38.994;2023-02-28T05:53:09;14.98;;;6.30;;
50683;SDS011;36654;45.042;38.994;2023-02-28T05:55:35;17.75;;;7.53;;
50683;SDS011;36654;45.042;38.994;2023-02-28T05:58:02;15.15;;;6.82;;
50683;SDS011;36654;45.042;38.994;2023-02-28T06:00:28;13.80;;;6.47;;
50683;SDS011;36654;45.042;38.994;2023-02-28T06:02:53;13.82;;;5.63;;
50683;SDS011;36654;45.042;38.994;2023-02-28T06:05:21;15.77;;;6.68;;
50683;SDS011;36654;45.042;38.994;2023-02-28T06:07:47;17.77;;;6.63;;
50683;SDS011;36654;45.042;38.994;2023-02-28T06:10:13;18.33;;;6.70;;
50683;SDS011;36654;45.042;38.994;2023-02-28T06:12:39;22.10;;;13.45;;
50683;SDS011;36654;45.042;38.994;2023-02-28T06:15:07;16.80;;;8.07;;
50683;SDS011;36654;45.042;38.994;2023-02-28T06:17:36;16.95;;;6.68;;
50683;SDS011;36654;45.042;38.994;2023-02-28T06:20:02;18.58;;;6.80;;
50683;SDS011;36654;45.042;38.994;2023-02-28T06:22:28;15.77;;;8.15;;
50683;SDS011;36654;45.042;38.994;2023-02-28T06:24:54;21.52;;;8.68;;
50683;SDS011;36654;45.042;38.994;2023-02-28T06:27:21;24.00;;;8.90;;
50683;SDS011;36654;45.042;38.994;2023-02-28T06:29:47;20.48;;;9.32;;
50683;SDS011;36654;45.042;38.994;2023-02-28T06:32:13;19.42;;;10.13;;
50683;SDS011;36654;45.042;38.994;2023-02-28T06:34:38;23.60;;;11.32;;
50683;SDS011;36654;45.042;38.994;2023-02-28T06:37:04;17.83;;;8.73;;
50683;SDS011;36654;45.042;38.994;2023-02-28T06:39:30;17.95;;;8.80;;
50683;SDS011;36654;45.042;38.994;2023-02-28T06:41:56;19.17;;;9.48;;
50683;SDS011;36654;45.042;38.994;2023-02-28T06:44:22;18.65;;;8.32;;
50683;SDS011;36654;45.042;38.994;2023-02-28T06:46:49;21.23;;;8.27;;
50683;SDS011;36654;45.042;38.994;2023-02-28T06:49:15;15.85;;;8.93;;
50683;SDS011;36654;45.042;38.994;2023-02-28T06:51:41;23.52;;;9.68;;
50683;SDS011;36654;45.042;38.994;2023-02-28T06:54:10;14.50;;;8.38;;
50683;SDS011;36654;45.042;38.994;2023-02-28T06:56:36;15.40;;;8.40;;
50683;SDS011;36654;45.042;38.994;2023-02-28T06:59:02;18.55;;;9.05;;
50683;SDS011;36654;45.042;38.994;2023-02-28T07:01:28;17.70;;;8.43;;
50683;SDS011;36654;45.042;38.994;2023-02-28T07:03:56;16.85;;;8.98;;
50683;SDS011;36654;45.042;38.994;2023-02-28T07:06:22;22.15;;;11.43;;
50683;SDS011;36654;45.042;38.994;2023-02-28T07:08:49;16.92;;;8.90;;
50683;SDS011;36654;45.042;38.994;2023-02-28T07:11:15;17.17;;;8.02;;
50683;SDS011;36654;45.042;38.994;2023-02-28T07:13:41;16.50;;;7.78;;
50683;SDS011;36654;45.042;38.994;2023-02-28T07:16:08;19.88;;;8.05;;
50683;SDS011;36654;45.042;38.994;2023-02-28T07:18:35;17.17;;;7.80;;
50683;SDS011;36654;45.042;38.994;2023-02-28T07:21:02;15.70;;;7.65;;
50683;SDS011;36654;45.042;38.994;2023-02-28T07:23:33;18.77;;;7.70;;
50683;SDS011;36654;45.042;38.994;2023-02-28T07:26:00;13.88;;;7.35;;
50683;SDS011;36654;45.042;38.994;2023-02-28T07:28:26;16.10;;;7.65;;
50683;SDS011;36654;45.042;38.994;2023-02-28T07:30:52;14.90;;;7.90;;
50683;SDS011;36654;45.042;38.994;2023-02-28T07:33:17;19.50;;;7.28;;
50683;SDS011;36654;45.042;38.994;2023-02-28T07:35:43;23.77;;;9.18;;
50683;SDS011;36654;45.042;38.994;2023-02-28T07:38:09;23.38;;;9.93;;
50683;SDS011;36654;45.042;38.994;2023-02-28T07:40:35;17.27;;;8.27;;
50683;SDS011;36654;45.042;38.994;2023-02-28T07:43:01;15.70;;;8.40;;
50683;SDS011;36654;45.042;38.994;2023-02-28T07:45:28;11.77;;;6.35;;
50683;SDS011;36654;45.042;38.994;2023-02-28T07:47:55;20.95;;;10.77;;
50683;SDS011;36654;45.042;38.994;2023-02-28T07:50:21;15.77;;;9.35;;
50683;SDS011;36654;45.042;38.994;2023-02-28T07:52:46;24.55;;;7.85;;
50683;SDS011;36654;45.042;38.994;2023-02-28T07:55:12;15.02;;;7.45;;
50683;SDS011;36654;45.042;38.994;2023-02-28T07:57:39;21.88;;;8.93;;
50683;SDS011;36654;45.042;38.994;2023-02-28T08:00:06;18.20;;;8.13;;
50683;SDS011;36654;45.042;38.994;2023-02-28T08:02:37;17.23;;;7.70;;
50683;SDS011;36654;45.042;38.994;2023-02-28T08:05:03;26.45;;;7.88;;
50683;SDS011;36654;45.042;38.994;2023-02-28T08:07:30;18.70;;;8.60;;
50683;SDS011;36654;45.042;38.994;2023-02-28T08:09:55;16.73;;;8.50;;
50683;SDS011;36654;45.042;38.994;2023-02-28T08:12:21;25.25;;;9.25;;
50683;SDS011;36654;45.042;38.994;2023-02-28T08:14:47;20.48;;;8.48;;
50683;SDS011;36654;45.042;38.994;2023-02-28T08:17:12;23.08;;;9.25;;
50683;SDS011;36654;45.042;38.994;2023-02-28T08:19:38;18.60;;;9.00;;
50683;SDS011;36654;45.042;38.994;2023-02-28T08:22:03;23.35;;;10.18;;
50683;SDS011;36654;45.042;38.994;2023-02-28T08:24:29;19.75;;;8.85;;
50683;SDS011;36654;45.042;38.994;2023-02-28T08:26:55;20.90;;;8.68;;
50683;SDS011;36654;45.042;38.994;2023-02-28T08:29:21;20.42;;;9.00;;
50683;SDS011;36654;45.042;38.994;2023-02-28T08:31:46;18.02;;;8.52;;
50683;SDS011;36654;45.042;38.994;2023-02-28T08:34:13;15.85;;;8.07;;
50683;SDS011;36654;45.042;38.994;2023-02-28T08:36:40;20.30;;;8.18;;
50683;SDS011;36654;45.042;38.994;2023-02-28T08:39:07;15.73;;;7.88;;
50683;SDS011;36654;45.042;38.994;2023-02-28T08:41:34;19.38;;;7.68;;
50683;SDS011;36654;45.042;38.994;2023-02-28T08:43:59;18.95;;;9.63;;
50683;SDS011;36654;45.042;38.994;2023-02-28T08:46:25;23.25;;;8.82;;
50683;SDS011;36654;45.042;38.994;2023-02-28T08:48:51;19.05;;;9.80;;
50683;SDS011;36654;45.042;38.994;2023-02-28T08:51:18;22.58;;;10.15;;
50683;SDS011;36654;45.042;38.994;2023-02-28T08:53:51;20.05;;;9.40;;
50683;SDS011;36654;45.042;38.994;2023-02-28T08:56:25;20.77;;;9.50;;
50683;SDS011;36654;45.042;38.994;2023-02-28T08:58:51;22.88;;;8.75;;
50683;SDS011;36654;45.042;38.994;2023-02-28T09:01:27;15.68;;;8.18;;
50683;SDS011;36654;45.042;38.994;2023-02-28T09:03:54;17.98;;;9.02;;
50683;SDS011;36654;45.042;38.994;2023-02-28T09:06:21;19.67;;;9.25;;
50683;SDS011;36654;45.042;38.994;2023-02-28T09:08:48;22.30;;;8.93;;
50683;SDS011;36654;45.042;38.994;2023-02-28T09:11:14;22.27;;;12.10;;
50683;SDS011;36654;45.042;38.994;2023-02-28T09:13:40;16.92;;;9.65;;
50683;SDS011;36654;45.042;38.994;2023-02-28T09:16:07;21.25;;;11.18;;
50683;SDS011;36654;45.042;38.994;2023-02-28T09:18:35;19.88;;;10.32;;
50683;SDS011;36654;45.042;38.994;2023-02-28T09:21:09;21.08;;;11.10;;
50683;SDS011;36654;45.042;38.994;2023-02-28T09:23:39;20.40;;;11.48;;
50683;SDS011;36654;45.042;38.994;2023-02-28T09:26:05;19.95;;;11.95;;
50683;SDS011;36654;45.042;38.994;2023-02-28T09:28:32;22.90;;;11.57;;
50683;SDS011;36654;45.042;38.994;2023-02-28T09:30:57;19.33;;;11.82;;
50683;SDS011;36654;45.042;38.994;2023-02-28T09:33:24;23.30;;;11.93;;
50683;SDS011;36654;45.042;38.994;2023-02-28T09:35:51;21.92;;;11.45;;
50683;SDS011;36654;45.042;38.994;2023-02-28T09:38:22;19.17;;;11.48;;
50683;SDS011;36654;45.042;38.994;2023-02-28T09:40:52;24.55;;;11.50;;
50683;SDS011;36654;45.042;38.994;2023-02-28T09:43:21;22.33;;;11.38;;
50683;SDS011;36654;45.042;38.994;2023-02-28T09:48:37;22.08;;;11.23;;
50683;SDS011;36654;45.042;38.994;2023-02-28T09:54:09;20.17;;;10.38;;
50683;SDS011;36654;45.042;38.994;2023-02-28T09:56:43;22.27;;;11.68;;
50683;SDS011;36654;45.042;38.994;2023-02-28T09:59:32;25.35;;;11.30;;
50683;SDS011;36654;45.042;38.994;2023-02-28T10:04:59;19.65;;;11.02;;
50683;SDS011;36654;45.042;38.994;2023-02-28T10:13:01;20.20;;;11.02;;
50683;SDS011;36654;45.042;38.994;2023-02-28T10:15:39;23.05;;;12.73;;
50683;SDS011;36654;45.042;38.994;2023-02-28T10:18:12;19.25;;;11.98;;
50683;SDS011;36654;45.042;38.994;2023-02-28T10:20:42;19.60;;;12.35;;
50683;SDS011;36654;45.042;38.994;2023-02-28T10:23:13;23.08;;;13.25;;
50683;SDS011;36654;45.042;38.994;2023-02-28T10:26:24;20.08;;;12.45;;
50683;SDS011;36654;45.042;38.994;2023-02-28T10:28:43;24.23;;;14.27;;
50683;SDS011;36654;45.042;38.994;2023-02-28T10:31:11;20.38;;;14.13;;
50683;SDS011;36654;45.042;38.994;2023-02-28T10:33:42;22.10;;;13.98;;
50683;SDS011;36654;45.042;38.994;2023-02-28T10:36:10;23.98;;;14.95;;
50683;SDS011;36654;45.042;38.994;2023-02-28T10:38:44;23.13;;;12.60;;
50683;SDS011;36654;45.042;38.994;2023-02-28T10:41:15;25.70;;;13.80;;
50683;SDS011;36654;45.042;38.994;2023-02-28T10:46:46;23.60;;;14.40;;
50683;SDS011;36654;45.042;38.994;2023-02-28T10:51:51;24.70;;;14.70;;
50683;SDS011;36654;45.042;38.994;2023-02-28T10:54:20;26.38;;;15.50;;
50683;SDS011;36654;45.042;38.994;2023-02-28T10:59:50;23.85;;;13.75;;
50683;SDS011;36654;45.042;38.994;2023-02-28T11:02:36;19.88;;;12.73;;
50683;SDS011;36654;45.042;38.994;2023-02-28T11:08:05;24.02;;;13.32;;
50683;SDS011;36654;45.042;38.994;2023-02-28T11:10:44;26.20;;;13.98;;
50683;SDS011;36654;45.042;38.994;2023-02-28T11:13:21;22.65;;;14.32;;
50683;SDS011;36654;45.042;38.994;2023-02-28T11:15:58;23.13;;;13.88;;
50683;SDS011;36654;45.042;38.994;2023-02-28T11:20:56;29.17;;;14.50;;
50683;SDS011;36654;45.042;38.994;2023-02-28T11:23:30;26.20;;;15.05;;
50683;SDS011;36654;45.042;38.994;2023-02-28T11:26:01;24.08;;;14.82;;
50683;SDS011;36654;45.042;38.994;2023-02-28T11:31:15;25.70;;;13.50;;
50683;SDS011;36654;45.042;38.994;2023-02-28T11:33:53;27.92;;;14.57;;
50683;SDS011;36654;45.042;38.994;2023-02-28T11:36:22;25.42;;;13.75;;
50683;SDS011;36654;45.042;38.994;2023-02-28T11:38:56;25.08;;;13.68;;
50683;SDS011;36654;45.042;38.994;2023-02-28T11:41:33;25.17;;;15.18;;
50683;SDS011;36654;45.042;38.994;2023-02-28T11:44:20;23.25;;;13.73;;
50683;SDS011;36654;45.042;38.994;2023-02-28T11:46:57;22.73;;;11.80;;
50683;SDS011;36654;45.042;38.994;2023-02-28T11:52:48;23.20;;;12.93;;
50683;SDS011;36654;45.042;38.994;2023-02-28T12:03:16;23.40;;;12.82;;
50683;SDS011;36654;45.042;38.994;2023-02-28T12:06:05;18.60;;;11.77;;
50683;SDS011;36654;45.042;38.994;2023-02-28T12:09:04;29.98;;;15.20;;
50683;SDS011;36654;45.042;38.994;2023-02-28T12:11:53;26.10;;;13.88;;
50683;SDS011;36654;45.042;38.994;2023-02-28T12:14:34;21.20;;;12.07;;
50683;SDS011;36654;45.042;38.994;2023-02-28T12:17:22;19.65;;;10.90;;
50683;SDS011;36654;45.042;38.994;2023-02-28T12:26:42;19.15;;;10.93;;
50683;SDS011;36654;45.042;38.994;2023-02-28T12:29:13;19.52;;;11.45;;
50683;SDS011;36654;45.042;38.994;2023-02-28T12:31:49;22.70;;;12.02;;
50683;SDS011;36654;45.042;38.994;2023-02-28T12:35:04;24.60;;;12.38;;
50683;SDS011;36654;45.042;38.994;2023-02-28T12:37:17;19.35;;;12.10;;
50683;SDS011;36654;45.042;38.994;2023-02-28T12:40:26;24.98;;;13.15;;
50683;SDS011;36654;45.042;38.994;2023-02-28T12:42:58;25.33;;;14.00;;
50683;SDS011;36654;45.042;38.994;2023-02-28T12:46:12;24.92;;;13.82;;
50683;SDS011;36654;45.042;38.994;2023-02-28T12:48:26;22.38;;;13.32;;
50683;SDS011;36654;45.042;38.994;2023-02-28T12:50:57;25.77;;;12.82;;
50683;SDS011;36654;45.042;38.994;2023-02-28T12:58:45;26.70;;;13.60;;
50683;SDS011;36654;45.042;38.994;2023-02-28T13:10:02;19.45;;;11.35;;
50683;SDS011;36654;45.042;38.994;2023-02-28T13:12:31;22.70;;;11.02;;
50683;SDS011;36654;45.042;38.994;2023-02-28T13:17:50;20.75;;;11.23;;
50683;SDS011;36654;45.042;38.994;2023-02-28T13:22:46;21.98;;;11.40;;
50683;SDS011;36654;45.042;38.994;2023-02-28T13:27:58;25.95;;;12.18;;
50683;SDS011;36654;45.042;38.994;2023-02-28T13:33:31;26.20;;;13.65;;
50683;SDS011;36654;45.042;38.994;2023-02-28T13:36:08;29.35;;;14.27;;
50683;SDS011;36654;45.042;38.994;2023-02-28T13:38:37;30.48;;;15.30;;
50683;SDS011;36654;45.042;38.994;2023-02-28T13:49:23;34.67;;;17.35;;
50683;SDS011;36654;45.042;38.994;2023-02-28T13:52:02;32.05;;;16.92;;
50683;SDS011;36654;45.042;38.994;2023-02-28T13:54:43;36.92;;;16.63;;
50683;SDS011;36654;45.042;38.994;2023-02-28T13:57:52;28.27;;;16.33;;
50683;SDS011;36654;45.042;38.994;2023-02-28T14:08:34;47.67;;;29.13;;
50683;SDS011;36654;45.042;38.994;2023-02-28T14:11:04;34.83;;;18.92;;
50683;SDS011;36654;45.042;38.994;2023-02-28T14:13:42;34.05;;;19.25;;
50683;SDS011;36654;45.042;38.994;2023-02-28T14:16:10;30.88;;;16.75;;
50683;SDS011;36654;45.042;38.994;2023-02-28T14:18:40;30.60;;;15.13;;
50683;SDS011;36654;45.042;38.994;2023-02-28T14:21:14;33.15;;;17.08;;
50683;SDS011;36654;45.042;38.994;2023-02-28T14:32:35;37.10;;;16.30;;
50683;SDS011;36654;45.042;38.994;2023-02-28T14:37:43;34.30;;;15.38;;
50683;SDS011;36654;45.042;38.994;2023-02-28T14:40:16;28.52;;;15.07;;
50683;SDS011;36654;45.042;38.994;2023-02-28T14:42:56;29.40;;;14.73;;
50683;SDS011;36654;45.042;38.994;2023-02-28T14:45:29;30.23;;;16.88;;
50683;SDS011;36654;45.042;38.994;2023-02-28T14:47:57;36.22;;;16.85;;
50683;SDS011;36654;45.042;38.994;2023-02-28T14:50:27;30.23;;;17.10;;
50683;SDS011;36654;45.042;38.994;2023-02-28T14:52:56;34.22;;;15.98;;
50683;SDS011;36654;45.042;38.994;2023-02-28T14:55:25;32.03;;;17.30;;
50683;SDS011;36654;45.042;38.994;2023-02-28T14:57:54;34.40;;;18.02;;
50683;SDS011;36654;45.042;38.994;2023-02-28T15:00:26;35.00;;;19.08;;
50683;SDS011;36654;45.042;38.994;2023-02-28T15:02:54;40.97;;;19.00;;
50683;SDS011;36654;45.042;38.994;2023-02-28T15:10:44;41.10;;;18.73;;
50683;SDS011;36654;45.042;38.994;2023-02-28T15:13:16;42.65;;;19.60;;
50683;SDS011;36654;45.042;38.994;2023-02-28T15:15:44;38.13;;;18.20;;
50683;SDS011;36654;45.042;38.994;2023-02-28T15:20:53;35.30;;;16.88;;
50683;SDS011;36654;45.042;38.994;2023-02-28T15:23:23;38.67;;;18.38;;
50683;SDS011;36654;45.042;38.994;2023-02-28T15:25:49;34.90;;;17.02;;
50683;SDS011;36654;45.042;38.994;2023-02-28T15:28:18;35.92;;;17.65;;
50683;SDS011;36654;45.042;38.994;2023-02-28T15:30:51;36.05;;;16.05;;
50683;SDS011;36654;45.042;38.994;2023-02-28T15:33:20;32.95;;;15.93;;
50683;SDS011;36654;45.042;38.994;2023-02-28T15:35:48;33.30;;;16.02;;
50683;SDS011;36654;45.042;38.994;2023-02-28T15:38:16;32.95;;;15.93;;
50683;SDS011;36654;45.042;38.994;2023-02-28T15:46:04;39.63;;;18.20;;
50683;SDS011;36654;45.042;38.994;2023-02-28T15:48:51;36.85;;;16.50;;
50683;SDS011;36654;45.042;38.994;2023-02-28T15:51:19;40.00;;;18.35;;
50683;SDS011;36654;45.042;38.994;2023-02-28T15:53:52;41.33;;;18.75;;
50683;SDS011;36654;45.042;38.994;2023-02-28T15:56:23;34.13;;;18.42;;
50683;SDS011;36654;45.042;38.994;2023-02-28T15:58:55;41.38;;;17.05;;
50683;SDS011;36654;45.042;38.994;2023-02-28T16:01:26;39.88;;;17.35;;
50683;SDS011;36654;45.042;38.994;2023-02-28T16:08:53;39.08;;;18.80;;
50683;SDS011;36654;45.042;38.994;2023-02-28T16:11:20;38.33;;;17.35;;
50683;SDS011;36654;45.042;38.994;2023-02-28T16:13:47;35.22;;;17.27;;
50683;SDS011;36654;45.042;38.994;2023-02-28T16:16:20;33.33;;;16.95;;
50683;SDS011;36654;45.042;38.994;2023-02-28T16:18:49;36.58;;;18.23;;
50683;SDS011;36654;45.042;38.994;2023-02-28T16:21:15;30.73;;;16.25;;
50683;SDS011;36654;45.042;38.994;2023-02-28T16:23:40;28.10;;;14.38;;
50683;SDS011;36654;45.042;38.994;2023-02-28T16:26:06;27.95;;;13.68;;
50683;SDS011;36654;45.042;38.994;2023-02-28T16:28:34;31.67;;;14.88;;
50683;SDS011;36654;45.042;38.994;2023-02-28T16:31:03;28.38;;;14.88;;
50683;SDS011;36654;45.042;38.994;2023-02-28T16:33:31;30.65;;;14.13;;
50683;SDS011;36654;45.042;38.994;2023-02-28T16:36:11;30.75;;;15.57;;
50683;SDS011;36654;45.042;38.994;2023-02-28T16:41:53;33.78;;;17.67;;
50683;SDS011;36654;45.042;38.994;2023-02-28T16:44:34;46.03;;;21.58;;
50683;SDS011;36654;45.042;38.994;2023-02-28T16:47:36;46.45;;;21.25;;
50683;SDS011;36654;45.042;38.994;2023-02-28T16:50:41;47.78;;;24.52;;
50683;SDS011;36654;45.042;38.994;2023-02-28T16:53:09;41.88;;;20.70;;
50683;SDS011;36654;45.042;38.994;2023-02-28T16:55:35;39.60;;;19.38;;
50683;SDS011;36654;45.042;38.994;2023-02-28T16:58:02;39.28;;;19.90;;
50683;SDS011;36654;45.042;38.994;2023-02-28T17:00:29;40.55;;;18.92;;
50683;SDS011;36654;45.042;38.994;2023-02-28T17:02:56;41.47;;;19.67;;
50683;SDS011;36654;45.042;38.994;2023-02-28T17:05:25;40.20;;;20.38;;
50683;SDS011;36654;45.042;38.994;2023-02-28T17:07:53;34.92;;;18.33;;